sensor_id;sensor_type;location;lat;lon;timestamp;pressure;altitude;pressure_sealevel;temperature;humidity
65276;BME280;51875;49.994;14.052;2023-04-05T00:00:08;99059.69;;;-3.09;91.40
65276;BME280;51875;49.994;14.052;2023-04-05T00:01:33;99054.78;;;-3.03;89.28
65276;BME280;51875;49.994;14.052;2023-04-05T00:02:49;99057.06;;;-3.11;90.21
65276;BME280;51875;49.994;14.052;2023-04-05T00:04:05;99061.06;;;-3.19;91.09
65276;BME280;51875;49.994;14.052;2023-04-05T00:05:22;99054.66;;;-3.31;92.17
65276;BME280;51875;49.994;14.052;2023-04-05T00:06:44;99052.41;;;-3.21;92.69
65276;BME280;51875;49.994;14.052;2023-04-05T00:08:02;99053.03;;;-3.04;93.05
65276;BME280;51875;49.994;14.052;2023-04-05T00:09:19;99053.13;;;-3.03;93.21
65276;BME280;51875;49.994;14.052;2023-04-05T00:10:35;99041.81;;;-3.08;93.28
65276;BME280;51875;49.994;14.052;2023-04-05T00:11:50;99047.50;;;-2.92;92.85
65276;BME280;51875;49.994;14.052;2023-04-05T00:13:06;99048.72;;;-3.07;95.12
65276;BME280;51875;49.994;14.052;2023-04-05T00:14:21;99046.53;;;-3.19;98.59
65276;BME280;51875;49.994;14.052;2023-04-05T00:15:37;99044.25;;;-3.35;100.00
65276;BME280;51875;49.994;14.052;2023-04-05T00:16:53;99034.47;;;-3.46;100.00
65276;BME280;51875;49.994;14.052;2023-04-05T00:18:09;99038.91;;;-3.42;100.00
65276;BME280;51875;49.994;14.052;2023-04-05T00:19:36;99037.47;;;-3.10;98.39
65276;BME280;51875;49.994;14.052;2023-04-05T00:20:52;99037.19;;;-3.18;97.72
65276;BME280;51875;49.994;14.052;2023-04-05T00:22:08;99042.56;;;-3.35;96.20
65276;BME280;51875;49.994;14.052;2023-04-05T00:23:24;99040.16;;;-3.30;95.67
65276;BME280;51875;49.994;14.052;2023-04-05T00:24:40;99032.72;;;-3.47;96.56
65276;BME280;51875;49.994;14.052;2023-04-05T00:25:57;99035.63;;;-3.37;95.63
65276;BME280;51875;49.994;14.052;2023-04-05T00:27:13;99035.16;;;-3.27;96.41
65276;BME280;51875;49.994;14.052;2023-04-05T00:28:28;99028.03;;;-3.12;95.98
65276;BME280;51875;49.994;14.052;2023-04-05T00:29:44;99032.28;;;-3.12;93.59
65276;BME280;51875;49.994;14.052;2023-04-05T00:30:59;99034.50;;;-3.21;92.66
65276;BME280;51875;49.994;14.052;2023-04-05T00:32:15;99026.59;;;-3.28;91.33
65276;BME280;51875;49.994;14.052;2023-04-05T00:33:31;99030.78;;;-3.30;91.57
65276;BME280;51875;49.994;14.052;2023-04-05T00:34:46;99025.06;;;-3.22;91.11
65276;BME280;51875;49.994;14.052;2023-04-05T00:36:12;99024.59;;;-3.12;91.37
65276;BME280;51875;49.994;14.052;2023-04-05T00:37:28;99023.75;;;-3.13;90.77
65276;BME280;51875;49.994;14.052;2023-04-05T00:38:46;99026.13;;;-3.17;90.62
65276;BME280;51875;49.994;14.052;2023-04-05T00:40:01;99017.44;;;-3.21;90.76
65276;BME280;51875;49.994;14.052;2023-04-05T00:41:18;99019.94;;;-3.22;91.75
65276;BME280;51875;49.994;14.052;2023-04-05T00:42:34;99021.81;;;-3.18;91.28
65276;BME280;51875;49.994;14.052;2023-04-05T00:43:49;99018.34;;;-3.20;90.86
65276;BME280;51875;49.994;14.052;2023-04-05T00:45:05;99017.38;;;-3.22;91.67
65276;BME280;51875;49.994;14.052;2023-04-05T00:46:21;99021.59;;;-3.24;90.93
65276;BME280;51875;49.994;14.052;2023-04-05T00:47:37;99025.56;;;-3.33;91.75
65276;BME280;51875;49.994;14.052;2023-04-05T00:48:53;99016.59;;;-3.44;92.87
65276;BME280;51875;49.994;14.052;2023-04-05T00:50:09;99014.63;;;-3.51;95.53
65276;BME280;51875;49.994;14.052;2023-04-05T00:51:29;99018.56;;;-3.37;95.32
65276;BME280;51875;49.994;14.052;2023-04-05T00:52:45;99019.38;;;-3.15;93.62
65276;BME280;51875;49.994;14.052;2023-04-05T00:54:01;99014.59;;;-3.06;93.32
65276;BME280;51875;49.994;14.052;2023-04-05T00:55:17;99013.16;;;-3.22;96.00
65276;BME280;51875;49.994;14.052;2023-04-05T00:56:33;99023.66;;;-3.38;97.93
65276;BME280;51875;49.994;14.052;2023-04-05T00:57:49;99015.41;;;-3.54;99.24
65276;BME280;51875;49.994;14.052;2023-04-05T00:59:04;99015.03;;;-3.63;98.15
65276;BME280;51875;49.994;14.052;2023-04-05T01:00:20;99017.06;;;-3.55;96.97
65276;BME280;51875;49.994;14.052;2023-04-05T01:01:39;99016.06;;;-3.58;96.50
65276;BME280;51875;49.994;14.052;2023-04-05T01:02:57;99012.53;;;-3.62;96.49
65276;BME280;51875;49.994;14.052;2023-04-05T01:04:16;99012.03;;;-3.53;95.63
65276;BME280;51875;49.994;14.052;2023-04-05T01:05:39;99012.59;;;-3.60;96.58
65276;BME280;51875;49.994;14.052;2023-04-05T01:07:10;99011.72;;;-3.61;96.42
65276;BME280;51875;49.994;14.052;2023-04-05T01:08:39;99011.72;;;-3.61;96.87
65276;BME280;51875;49.994;14.052;2023-04-05T01:09:58;99004.63;;;-3.68;97.56
65276;BME280;51875;49.994;14.052;2023-04-05T01:11:15;99009.75;;;-3.68;99.33
65276;BME280;51875;49.994;14.052;2023-04-05T01:12:33;99007.28;;;-3.65;98.61
65276;BME280;51875;49.994;14.052;2023-04-05T01:13:58;99008.41;;;-3.58;97.54
65276;BME280;51875;49.994;14.052;2023-04-05T01:15:14;99009.75;;;-3.68;97.08
65276;BME280;51875;49.994;14.052;2023-04-05T01:16:30;99009.56;;;-3.73;97.47
65276;BME280;51875;49.994;14.052;2023-04-05T01:17:46;99007.19;;;-3.68;97.48
65276;BME280;51875;49.994;14.052;2023-04-05T01:19:03;99007.06;;;-3.71;99.80
65276;BME280;51875;49.994;14.052;2023-04-05T01:20:18;98997.31;;;-3.59;100.00
65276;BME280;51875;49.994;14.052;2023-04-05T01:24:45;98995.63;;;-3.81;100.00
65276;BME280;51875;49.994;14.052;2023-04-05T01:30:03;98994.78;;;-3.57;100.00
65276;BME280;51875;49.994;14.052;2023-04-05T01:32:47;98997.91;;;-3.87;100.00
65276;BME280;51875;49.994;14.052;2023-04-05T01:34:33;98995.31;;;-3.89;100.00
65276;BME280;51875;49.994;14.052;2023-04-05T01:35:55;98995.56;;;-3.60;100.00
65276;BME280;51875;49.994;14.052;2023-04-05T01:37:17;98990.25;;;-3.42;100.00
65276;BME280;51875;49.994;14.052;2023-04-05T01:38:34;98994.31;;;-3.47;99.21
65276;BME280;51875;49.994;14.052;2023-04-05T01:39:53;98997.97;;;-3.40;97.32
65276;BME280;51875;49.994;14.052;2023-04-05T01:41:09;98994.69;;;-3.36;97.70
65276;BME280;51875;49.994;14.052;2023-04-05T01:42:26;98996.50;;;-3.33;97.51
65276;BME280;51875;49.994;14.052;2023-04-05T01:43:41;98997.34;;;-3.34;98.00
65276;BME280;51875;49.994;14.052;2023-04-05T01:44:57;98989.59;;;-3.36;95.92
65276;BME280;51875;49.994;14.052;2023-04-05T01:46:12;98992.03;;;-3.39;94.36
65276;BME280;51875;49.994;14.052;2023-04-05T01:47:28;98988.28;;;-3.49;95.59
65276;BME280;51875;49.994;14.052;2023-04-05T01:48:44;98992.56;;;-3.48;94.62
65276;BME280;51875;49.994;14.052;2023-04-05T01:49:59;98986.59;;;-3.48;93.75
65276;BME280;51875;49.994;14.052;2023-04-05T01:51:15;98985.88;;;-3.44;92.44
65276;BME280;51875;49.994;14.052;2023-04-05T01:52:30;98986.31;;;-3.56;93.01
65276;BME280;51875;49.994;14.052;2023-04-05T01:53:46;98990.81;;;-3.72;94.09
65276;BME280;51875;49.994;14.052;2023-04-05T01:55:02;98989.97;;;-3.72;94.34
65276;BME280;51875;49.994;14.052;2023-04-05T01:56:17;98988.28;;;-3.72;93.22
65276;BME280;51875;49.994;14.052;2023-04-05T01:57:33;98984.91;;;-3.71;91.86
65276;BME280;51875;49.994;14.052;2023-04-05T01:58:49;98983.75;;;-3.79;93.28
65276;BME280;51875;49.994;14.052;2023-04-05T02:00:04;98980.31;;;-3.79;93.14
65276;BME280;51875;49.994;14.052;2023-04-05T02:01:20;98982.75;;;-3.83;92.44
65276;BME280;51875;49.994;14.052;2023-04-05T02:02:36;98991.13;;;-3.87;93.05
65276;BME280;51875;49.994;14.052;2023-04-05T02:03:52;98986.00;;;-3.87;93.36
65276;BME280;51875;49.994;14.052;2023-04-05T02:05:07;98991.94;;;-3.88;91.63
65276;BME280;51875;49.994;14.052;2023-04-05T02:06:23;98978.53;;;-3.82;93.35
65276;BME280;51875;49.994;14.052;2023-04-05T02:07:39;98987.88;;;-3.83;93.64
65276;BME280;51875;49.994;14.052;2023-04-05T02:08:54;98982.00;;;-3.80;94.61
65276;BME280;51875;49.994;14.052;2023-04-05T02:10:10;98981.75;;;-3.86;96.08
65276;BME280;51875;49.994;14.052;2023-04-05T02:11:25;98982.38;;;-3.92;96.19
65276;BME280;51875;49.994;14.052;2023-04-05T02:12:41;98978.97;;;-3.92;96.43
65276;BME280;51875;49.994;14.052;2023-04-05T02:13:57;98978.44;;;-3.84;94.86
65276;BME280;51875;49.994;14.052;2023-04-05T02:15:12;98982.13;;;-3.77;93.77
65276;BME280;51875;49.994;14.052;2023-04-05T02:16:28;98978.84;;;-3.73;91.54
65276;BME280;51875;49.994;14.052;2023-04-05T02:17:47;98979.47;;;-3.78;90.41
65276;BME280;51875;49.994;14.052;2023-04-05T02:19:03;98982.31;;;-4.16;93.41
65276;BME280;51875;49.994;14.052;2023-04-05T02:20:20;98976.44;;;-4.14;93.68
65276;BME280;51875;49.994;14.052;2023-04-05T02:21:36;98976.94;;;-4.01;92.70
65276;BME280;51875;49.994;14.052;2023-04-05T02:22:51;98972.81;;;-3.98;92.36
65276;BME280;51875;49.994;14.052;2023-04-05T02:24:07;98969.38;;;-3.98;93.29
65276;BME280;51875;49.994;14.052;2023-04-05T02:25:23;98975.03;;;-4.05;91.63
65276;BME280;51875;49.994;14.052;2023-04-05T02:26:39;98975.88;;;-4.06;92.41
65276;BME280;51875;49.994;14.052;2023-04-05T02:27:54;98967.34;;;-4.07;93.92
65276;BME280;51875;49.994;14.052;2023-04-05T02:29:10;98969.78;;;-4.10;93.50
65276;BME280;51875;49.994;14.052;2023-04-05T02:30:25;98971.06;;;-4.20;95.00
65276;BME280;51875;49.994;14.052;2023-04-05T02:31:43;98966.09;;;-4.17;94.65
65276;BME280;51875;49.994;14.052;2023-04-05T02:32:58;98969.19;;;-4.26;93.90
65276;BME280;51875;49.994;14.052;2023-04-05T02:34:14;98967.25;;;-4.31;94.34
65276;BME280;51875;49.994;14.052;2023-04-05T02:35:29;98969.19;;;-4.26;94.99
65276;BME280;51875;49.994;14.052;2023-04-05T02:36:45;98968.91;;;-4.32;95.76
65276;BME280;51875;49.994;14.052;2023-04-05T02:38:02;98966.88;;;-4.41;96.21
65276;BME280;51875;49.994;14.052;2023-04-05T02:39:18;98968.06;;;-4.32;95.50
65276;BME280;51875;49.994;14.052;2023-04-05T02:40:35;98965.44;;;-4.34;95.45
65276;BME280;51875;49.994;14.052;2023-04-05T02:41:50;98962.38;;;-4.25;94.80
65276;BME280;51875;49.994;14.052;2023-04-05T02:43:06;98970.28;;;-4.40;97.04
65276;BME280;51875;49.994;14.052;2023-04-05T02:44:22;98962.38;;;-4.46;98.35
65276;BME280;51875;49.994;14.052;2023-04-05T02:45:37;98965.25;;;-4.38;97.83
65276;BME280;51875;49.994;14.052;2023-04-05T02:46:53;98970.78;;;-4.49;100.00
65276;BME280;51875;49.994;14.052;2023-04-05T02:48:08;98967.56;;;-4.45;99.85
65276;BME280;51875;49.994;14.052;2023-04-05T02:49:24;98960.19;;;-4.37;97.65
65276;BME280;51875;49.994;14.052;2023-04-05T02:50:39;98965.44;;;-4.34;97.44
65276;BME280;51875;49.994;14.052;2023-04-05T02:51:55;98967.09;;;-4.34;96.52
65276;BME280;51875;49.994;14.052;2023-04-05T02:53:10;98968.22;;;-4.28;96.97
65276;BME280;51875;49.994;14.052;2023-04-05T02:54:27;98964.72;;;-4.30;98.61
65276;BME280;51875;49.994;14.052;2023-04-05T02:55:50;98964.53;;;-4.34;98.27
65276;BME280;51875;49.994;14.052;2023-04-05T02:57:07;98961.63;;;-4.44;98.43
65276;BME280;51875;49.994;14.052;2023-04-05T02:58:25;98961.00;;;-4.38;98.25
65276;BME280;51875;49.994;14.052;2023-04-05T02:59:41;98959.38;;;-4.36;98.26
65276;BME280;51875;49.994;14.052;2023-04-05T03:00:58;98957.06;;;-4.30;98.17
65276;BME280;51875;49.994;14.052;2023-04-05T03:02:15;98956.50;;;-4.22;96.55
65276;BME280;51875;49.994;14.052;2023-04-05T03:03:32;98959.72;;;-4.27;96.03
65276;BME280;51875;49.994;14.052;2023-04-05T03:04:51;98958.25;;;-4.21;95.52
65276;BME280;51875;49.994;14.052;2023-04-05T03:06:07;98957.88;;;-4.31;95.84
65276;BME280;51875;49.994;14.052;2023-04-05T03:07:26;98957.94;;;-4.29;96.74
65276;BME280;51875;49.994;14.052;2023-04-05T03:08:42;98954.63;;;-4.27;97.40
65276;BME280;51875;49.994;14.052;2023-04-05T03:10:00;98963.69;;;-4.56;100.00
65276;BME280;51875;49.994;14.052;2023-04-05T03:11:17;98963.25;;;-4.46;98.47
65276;BME280;51875;49.994;14.052;2023-04-05T03:12:32;98966.78;;;-4.42;97.20
65276;BME280;51875;49.994;14.052;2023-04-05T03:13:48;98966.38;;;-4.53;97.79
65276;BME280;51875;49.994;14.052;2023-04-05T03:15:03;98964.94;;;-4.68;98.26
65276;BME280;51875;49.994;14.052;2023-04-05T03:16:20;98967.59;;;-4.64;97.88
65276;BME280;51875;49.994;14.052;2023-04-05T03:17:35;98964.50;;;-4.78;100.00
65276;BME280;51875;49.994;14.052;2023-04-05T03:18:51;98963.19;;;-4.69;100.00
65276;BME280;51875;49.994;14.052;2023-04-05T03:20:07;98970.72;;;-4.72;100.00
65276;BME280;51875;49.994;14.052;2023-04-05T03:21:24;98971.25;;;-4.59;100.00
65276;BME280;51875;49.994;14.052;2023-04-05T03:22:40;98960.56;;;-4.49;99.44
65276;BME280;51875;49.994;14.052;2023-04-05T03:23:56;98961.94;;;-4.57;99.07
65276;BME280;51875;49.994;14.052;2023-04-05T03:25:12;98953.97;;;-4.65;100.00
65276;BME280;51875;49.994;14.052;2023-04-05T03:26:29;98959.00;;;-4.66;100.00
65276;BME280;51875;49.994;14.052;2023-04-05T03:27:44;98952.22;;;-4.45;99.46
65276;BME280;51875;49.994;14.052;2023-04-05T03:29:00;98953.59;;;-4.53;97.20
65276;BME280;51875;49.994;14.052;2023-04-05T03:30:16;98954.78;;;-4.45;97.23
65276;BME280;51875;49.994;14.052;2023-04-05T03:31:31;98955.53;;;-4.47;95.54
65276;BME280;51875;49.994;14.052;2023-04-05T03:32:47;98952.22;;;-4.45;95.48
65276;BME280;51875;49.994;14.052;2023-04-05T03:34:03;98952.97;;;-4.47;94.77
65276;BME280;51875;49.994;14.052;2023-04-05T03:35:18;98949.19;;;-4.57;95.63
65276;BME280;51875;49.994;14.052;2023-04-05T03:36:34;98951.91;;;-4.74;98.87
65276;BME280;51875;49.994;14.052;2023-04-05T03:37:56;98953.16;;;-4.64;99.38
65276;BME280;51875;49.994;14.052;2023-04-05T03:39:12;98949.91;;;-4.60;100.00
65276;BME280;51875;49.994;14.052;2023-04-05T03:40:28;98952.72;;;-4.75;100.00
65276;BME280;51875;49.994;14.052;2023-04-05T03:41:43;98951.63;;;-4.80;100.00
65276;BME280;51875;49.994;14.052;2023-04-05T03:42:59;98950.72;;;-4.82;100.00
65276;BME280;51875;49.994;14.052;2023-04-05T03:44:14;98950.50;;;-4.87;100.00
65276;BME280;51875;49.994;14.052;2023-04-05T03:45:30;98956.34;;;-4.70;100.00
65276;BME280;51875;49.994;14.052;2023-04-05T03:46:46;98956.56;;;-4.63;99.93
65276;BME280;51875;49.994;14.052;2023-04-05T03:48:02;98954.00;;;-4.85;100.00
65276;BME280;51875;49.994;14.052;2023-04-05T03:49:17;98951.63;;;-4.80;100.00
65276;BME280;51875;49.994;14.052;2023-04-05T03:50:34;98956.50;;;-4.86;100.00
65276;BME280;51875;49.994;14.052;2023-04-05T03:51:49;98952.94;;;-4.90;99.45
65276;BME280;51875;49.994;14.052;2023-04-05T03:53:05;98957.88;;;-4.73;98.97
65276;BME280;51875;49.994;14.052;2023-04-05T03:54:20;98954.78;;;-4.66;100.00
65276;BME280;51875;49.994;14.052;2023-04-05T03:55:36;98955.91;;;-4.80;100.00
65276;BME280;51875;49.994;14.052;2023-04-05T03:56:51;98959.72;;;-4.90;100.00
65276;BME280;51875;49.994;14.052;2023-04-05T03:58:07;98952.75;;;-4.94;100.00
65276;BME280;51875;49.994;14.052;2023-04-05T03:59:22;98957.78;;;-4.96;100.00
65276;BME280;51875;49.994;14.052;2023-04-05T04:00:38;98954.44;;;-4.95;100.00
65276;BME280;51875;49.994;14.052;2023-04-05T04:01:54;98958.44;;;-4.80;100.00
65276;BME280;51875;49.994;14.052;2023-04-05T04:03:10;98960.19;;;-4.79;100.00
65276;BME280;51875;49.994;14.052;2023-04-05T04:04:25;98956.34;;;-4.89;100.00
65276;BME280;51875;49.994;14.052;2023-04-05T04:05:42;98958.44;;;-4.80;99.36
65276;BME280;51875;49.994;14.052;2023-04-05T04:06:57;98953.91;;;-4.66;97.98
65276;BME280;51875;49.994;14.052;2023-04-05T04:08:13;98958.31;;;-4.62;98.73
65276;BME280;51875;49.994;14.052;2023-04-05T04:09:28;98956.38;;;-4.68;100.00
65276;BME280;51875;49.994;14.052;2023-04-05T04:10:45;98955.09;;;-4.58;99.95
65276;BME280;51875;49.994;14.052;2023-04-05T04:12:01;98952.38;;;-4.61;99.57
65276;BME280;51875;49.994;14.052;2023-04-05T04:13:16;98959.31;;;-4.59;98.45
65276;BME280;51875;49.994;14.052;2023-04-05T04:14:34;98953.34;;;-4.59;97.72
65276;BME280;51875;49.994;14.052;2023-04-05T04:15:50;98955.63;;;-4.65;95.70
65276;BME280;51875;49.994;14.052;2023-04-05T04:17:05;98954.88;;;-4.84;97.80
65276;BME280;51875;49.994;14.052;2023-04-05T04:18:20;98954.88;;;-4.84;98.11
65276;BME280;51875;49.994;14.052;2023-04-05T04:19:36;98955.75;;;-4.84;97.36
65276;BME280;51875;49.994;14.052;2023-04-05T04:20:52;98949.69;;;-4.86;97.02
65276;BME280;51875;49.994;14.052;2023-04-05T04:22:07;98956.91;;;-4.97;98.74
65276;BME280;51875;49.994;14.052;2023-04-05T04:23:24;98957.59;;;-5.01;98.24
65276;BME280;51875;49.994;14.052;2023-04-05T04:24:41;98959.34;;;-5.00;98.88
65276;BME280;51875;49.994;14.052;2023-04-05T04:26:00;98950.88;;;-4.99;98.68
65276;BME280;51875;49.994;14.052;2023-04-05T04:27:17;98963.38;;;-5.05;99.01
65276;BME280;51875;49.994;14.052;2023-04-05T04:28:33;98961.63;;;-5.06;98.35
65276;BME280;51875;49.994;14.052;2023-04-05T04:29:48;98963.56;;;-5.00;98.22
65276;BME280;51875;49.994;14.052;2023-04-05T04:31:04;98960.53;;;-4.91;96.46
65276;BME280;51875;49.994;14.052;2023-04-05T04:32:20;98958.50;;;-4.79;97.08
65276;BME280;51875;49.994;14.052;2023-04-05T04:33:41;98965.50;;;-4.75;95.04
65276;BME280;51875;49.994;14.052;2023-04-05T04:34:57;98969.09;;;-4.91;95.07
65276;BME280;51875;49.994;14.052;2023-04-05T04:36:13;98963.25;;;-4.88;94.36
65276;BME280;51875;49.994;14.052;2023-04-05T04:37:28;98965.78;;;-4.88;94.11
65276;BME280;51875;49.994;14.052;2023-04-05T04:38:44;98963.47;;;-4.82;94.61
65276;BME280;51875;49.994;14.052;2023-04-05T04:39:59;98961.44;;;-4.70;95.12
65276;BME280;51875;49.994;14.052;2023-04-05T04:41:18;98962.50;;;-4.64;94.88
65276;BME280;51875;49.994;14.052;2023-04-05T04:42:37;98957.66;;;-4.58;93.75
65276;BME280;51875;49.994;14.052;2023-04-05T04:43:53;98962.75;;;-4.58;94.24
65276;BME280;51875;49.994;14.052;2023-04-05T04:45:09;98961.63;;;-4.65;93.19
65276;BME280;51875;49.994;14.052;2023-04-05T04:46:25;98957.63;;;-4.79;94.58
65276;BME280;51875;49.994;14.052;2023-04-05T04:47:46;98957.25;;;-4.68;93.78
65276;BME280;51875;49.994;14.052;2023-04-05T04:49:02;98952.72;;;-4.75;94.44
65276;BME280;51875;49.994;14.052;2023-04-05T04:50:20;98957.97;;;-4.72;93.98
65276;BME280;51875;49.994;14.052;2023-04-05T04:51:36;98963.47;;;-4.82;96.79
65276;BME280;51875;49.994;14.052;2023-04-05T04:52:52;98960.25;;;-4.78;98.00
65276;BME280;51875;49.994;14.052;2023-04-05T04:54:07;98956.06;;;-4.76;97.90
65276;BME280;51875;49.994;14.052;2023-04-05T04:55:23;98960.63;;;-4.69;98.26
65276;BME280;51875;49.994;14.052;2023-04-05T04:56:42;98968.81;;;-4.56;96.32
65276;BME280;51875;49.994;14.052;2023-04-05T04:57:58;98961.63;;;-4.65;95.55
65276;BME280;51875;49.994;14.052;2023-04-05T04:59:14;98965.09;;;-4.84;97.98
65276;BME280;51875;49.994;14.052;2023-04-05T05:00:30;98956.00;;;-4.77;99.34
65276;BME280;51875;49.994;14.052;2023-04-05T05:01:45;98955.09;;;-4.79;99.08
65276;BME280;51875;49.994;14.052;2023-04-05T05:03:01;98961.66;;;-4.85;100.00
65276;BME280;51875;49.994;14.052;2023-04-05T05:04:17;98959.00;;;-4.88;100.00
65276;BME280;51875;49.994;14.052;2023-04-05T05:05:33;98959.25;;;-4.82;100.00
65276;BME280;51875;49.994;14.052;2023-04-05T05:06:52;98965.75;;;-4.69;99.76
65276;BME280;51875;49.994;14.052;2023-04-05T05:08:08;98963.25;;;-4.46;98.21
65276;BME280;51875;49.994;14.052;2023-04-05T05:09:24;98962.69;;;-4.38;97.60
65276;BME280;51875;49.994;14.052;2023-04-05T05:10:39;98959.50;;;-4.33;95.89
65276;BME280;51875;49.994;14.052;2023-04-05T05:11:55;98955.88;;;-4.17;95.54
65276;BME280;51875;49.994;14.052;2023-04-05T05:13:13;98965.41;;;-4.13;95.91
65276;BME280;51875;49.994;14.052;2023-04-05T05:14:29;98955.38;;;-4.08;95.06
65276;BME280;51875;49.994;14.052;2023-04-05T05:15:45;98961.59;;;-4.01;95.72
65276;BME280;51875;49.994;14.052;2023-04-05T05:17:01;98961.69;;;-3.98;95.33
65276;BME280;51875;49.994;14.052;2023-04-05T05:18:16;98957.59;;;-3.94;94.14
65276;BME280;51875;49.994;14.052;2023-04-05T05:19:32;98966.06;;;-3.95;92.30
65276;BME280;51875;49.994;14.052;2023-04-05T05:20:49;98963.44;;;-3.97;93.38
65276;BME280;51875;49.994;14.052;2023-04-05T05:22:05;98958.50;;;-3.92;93.97
65276;BME280;51875;49.994;14.052;2023-04-05T05:23:21;98960.75;;;-3.77;95.40
65276;BME280;51875;49.994;14.052;2023-04-05T05:24:37;98967.13;;;-3.67;95.25
65276;BME280;51875;49.994;14.052;2023-04-05T05:25:58;98960.72;;;-3.56;95.77
65276;BME280;51875;49.994;14.052;2023-04-05T05:27:14;98960.75;;;-3.55;97.35
65276;BME280;51875;49.994;14.052;2023-04-05T05:28:30;98960.88;;;-3.51;99.13
65276;BME280;51875;49.994;14.052;2023-04-05T05:29:45;98964.47;;;-3.46;100.00
65276;BME280;51875;49.994;14.052;2023-04-05T05:31:02;98962.03;;;-3.43;100.00
65276;BME280;51875;49.994;14.052;2023-04-05T05:32:18;98962.25;;;-3.37;100.00
65276;BME280;51875;49.994;14.052;2023-04-05T05:33:33;98959.94;;;-3.29;100.00
65276;BME280;51875;49.994;14.052;2023-04-05T05:34:49;98957.53;;;-3.26;100.00
65276;BME280;51875;49.994;14.052;2023-04-05T05:36:05;98953.72;;;-3.36;100.00
65276;BME280;51875;49.994;14.052;2023-04-05T05:37:28;98963.28;;;-3.32;100.00
65276;BME280;51875;49.994;14.052;2023-04-05T05:38:44;98962.69;;;-3.24;100.00
65276;BME280;51875;49.994;14.052;2023-04-05T05:40:00;98965.56;;;-3.15;100.00
65276;BME280;51875;49.994;14.052;2023-04-05T05:41:15;98965.03;;;-3.06;100.00
65276;BME280;51875;49.994;14.052;2023-04-05T05:42:31;98961.81;;;-3.25;100.00
65276;BME280;51875;49.994;14.052;2023-04-05T05:43:48;98967.38;;;-3.13;100.00
65276;BME280;51875;49.994;14.052;2023-04-05T05:45:04;98967.94;;;-2.95;100.00
65276;BME280;51875;49.994;14.052;2023-04-05T05:46:20;98963.34;;;-2.80;100.00
65276;BME280;51875;49.994;14.052;2023-04-05T05:47:36;98963.66;;;-2.71;100.00
65276;BME280;51875;49.994;14.052;2023-04-05T05:48:51;98953.91;;;-2.57;100.00
65276;BME280;51875;49.994;14.052;2023-04-05T05:50:07;98960.63;;;-2.59;100.00
65276;BME280;51875;49.994;14.052;2023-04-05T05:51:24;98965.91;;;-2.54;100.00
65276;BME280;51875;49.994;14.052;2023-04-05T05:52:39;98959.31;;;-2.47;100.00
65276;BME280;51875;49.994;14.052;2023-04-05T05:53:55;98955.25;;;-2.41;100.00
65276;BME280;51875;49.994;14.052;2023-04-05T05:55:10;98956.38;;;-2.32;100.00
65276;BME280;51875;49.994;14.052;2023-04-05T05:56:26;98957.28;;;-2.30;100.00
65276;BME280;51875;49.994;14.052;2023-04-05T05:57:42;98952.75;;;-2.39;100.00
65276;BME280;51875;49.994;14.052;2023-04-05T05:58:57;98950.69;;;-2.49;100.00
65276;BME280;51875;49.994;14.052;2023-04-05T06:00:14;98955.72;;;-2.25;100.00
65276;BME280;51875;49.994;14.052;2023-04-05T06:01:30;98948.25;;;-2.19;100.00
65276;BME280;51875;49.994;14.052;2023-04-05T06:02:45;98948.78;;;-2.29;100.00
65276;BME280;51875;49.994;14.052;2023-04-05T06:04:00;98954.91;;;-2.24;100.00
65276;BME280;51875;49.994;14.052;2023-04-05T06:05:16;98953.56;;;-2.40;100.00
65276;BME280;51875;49.994;14.052;2023-04-05T06:06:32;98953.56;;;-2.40;100.00
65276;BME280;51875;49.994;14.052;2023-04-05T06:07:48;98955.63;;;-2.30;100.00
65276;BME280;51875;49.994;14.052;2023-04-05T06:09:03;98953.28;;;-2.22;100.00
65276;BME280;51875;49.994;14.052;2023-04-05T06:10:19;98957.34;;;-2.29;100.00
65276;BME280;51875;49.994;14.052;2023-04-05T06:11:35;98952.47;;;-2.21;100.00
65276;BME280;51875;49.994;14.052;2023-04-05T06:12:51;98948.41;;;-2.14;100.00
65276;BME280;51875;49.994;14.052;2023-04-05T06:14:06;98945.28;;;-2.31;100.00
65276;BME280;51875;49.994;14.052;2023-04-05T06:15:22;98953.03;;;-2.02;100.00
65276;BME280;51875;49.994;14.052;2023-04-05T06:16:38;98947.22;;;-1.96;100.00
65276;BME280;51875;49.994;14.052;2023-04-05T06:17:53;98956.75;;;-1.92;100.00
65276;BME280;51875;49.994;14.052;2023-04-05T06:19:09;98950.16;;;-1.84;100.00
65276;BME280;51875;49.994;14.052;2023-04-05T06:20:25;98953.63;;;-2.11;100.00
65276;BME280;51875;49.994;14.052;2023-04-05T06:21:40;98953.78;;;-1.77;100.00
65276;BME280;51875;49.994;14.052;2023-04-05T06:22:56;98952.19;;;-1.74;100.00
65276;BME280;51875;49.994;14.052;2023-04-05T06:24:11;98950.53;;;-1.99;100.00
65276;BME280;51875;49.994;14.052;2023-04-05T06:25:27;98953.56;;;-1.83;100.00
65276;BME280;51875;49.994;14.052;2023-04-05T06:26:42;98952.06;;;-1.77;100.00
65276;BME280;51875;49.994;14.052;2023-04-05T06:27:58;98947.38;;;-1.61;100.00
65276;BME280;51875;49.994;14.052;2023-04-05T06:29:13;98950.47;;;-1.73;100.00
65276;BME280;51875;49.994;14.052;2023-04-05T06:30:30;98956.44;;;-1.74;100.00
65276;BME280;51875;49.994;14.052;2023-04-05T06:31:46;98953.94;;;-1.71;100.00
65276;BME280;51875;49.994;14.052;2023-04-05T06:33:02;98950.53;;;-1.70;100.00
65276;BME280;51875;49.994;14.052;2023-04-05T06:34:18;98951.00;;;-1.54;100.00
65276;BME280;51875;49.994;14.052;2023-04-05T06:35:33;98952.66;;;-1.57;100.00
65276;BME280;51875;49.994;14.052;2023-04-05T06:36:49;98952.44;;;-1.34;100.00
65276;BME280;51875;49.994;14.052;2023-04-05T06:38:04;98952.44;;;-1.34;100.00
65276;BME280;51875;49.994;14.052;2023-04-05T06:39:20;98949.53;;;-1.16;100.00
65276;BME280;51875;49.994;14.052;2023-04-05T06:40:36;98948.41;;;-0.92;100.00
65276;BME280;51875;49.994;14.052;2023-04-05T06:41:51;98949.50;;;-0.83;98.92
65276;BME280;51875;49.994;14.052;2023-04-05T06:43:08;98952.84;;;-0.86;99.83
65276;BME280;51875;49.994;14.052;2023-04-05T06:44:25;98948.41;;;-0.93;100.00
65276;BME280;51875;49.994;14.052;2023-04-05T06:45:41;98949.84;;;-1.03;100.00
65276;BME280;51875;49.994;14.052;2023-04-05T06:46:57;98949.69;;;-0.76;100.00